createdAt,value
2023-05-03T00:00:08.725Z,6.60
2023-05-03T00:02:39.992Z,6.07
2023-05-03T00:05:13.015Z,7.57
2023-05-03T00:07:44.388Z,6.70
2023-05-03T00:10:15.814Z,6.87
2023-05-03T00:12:45.053Z,7.67
2023-05-03T00:15:13.408Z,7.10
2023-05-03T00:17:43.212Z,7.47
2023-05-03T00:20:12.877Z,8.00
2023-05-03T00:22:41.228Z,7.77
2023-05-03T00:25:10.308Z,7.40
2023-05-03T00:27:38.680Z,7.87
2023-05-03T00:30:08.264Z,6.87
2023-05-03T00:32:36.718Z,8.77
2023-05-03T00:35:07.434Z,9.27
2023-05-03T00:37:36.267Z,8.07
2023-05-03T00:40:05.826Z,9.03
2023-05-03T00:42:36.288Z,8.23
2023-05-03T00:45:06.126Z,9.10
2023-05-03T00:47:34.845Z,8.83
2023-05-03T00:50:04.921Z,6.77
2023-05-03T00:52:35.503Z,8.80
2023-05-03T00:55:03.909Z,8.37
2023-05-03T00:57:32.491Z,8.70
2023-05-03T01:00:01.842Z,9.63
2023-05-03T01:02:30.660Z,8.20
2023-05-03T01:04:59.080Z,10.27
2023-05-03T01:07:37.011Z,9.07
2023-05-03T01:10:14.575Z,8.53
2023-05-03T01:12:50.653Z,8.73
2023-05-03T01:15:26.853Z,8.30
2023-05-03T01:18:03.118Z,9.03
2023-05-03T01:20:32.912Z,9.70
2023-05-03T01:23:07.091Z,8.47
2023-05-03T01:25:37.045Z,10.90
2023-05-03T01:28:05.795Z,9.47
2023-05-03T01:30:35.503Z,8.50
2023-05-03T01:33:10.341Z,10.57
2023-05-03T01:35:42.778Z,9.80
2023-05-03T01:38:12.551Z,9.03
2023-05-03T01:40:48.312Z,10.10
2023-05-03T01:43:19.015Z,9.93
2023-05-03T01:45:48.820Z,9.50
2023-05-03T01:48:18.454Z,10.33
2023-05-03T01:50:47.319Z,9.37
2023-05-03T01:53:15.646Z,10.83
2023-05-03T01:55:45.718Z,9.20
2023-05-03T01:58:14.086Z,12.17
2023-05-03T02:00:42.472Z,10.00
2023-05-03T02:03:10.862Z,10.43
2023-05-03T02:05:40.028Z,8.83
2023-05-03T02:08:08.557Z,8.70
2023-05-03T02:10:36.907Z,9.93
2023-05-03T02:13:06.553Z,12.27
2023-05-03T02:15:35.045Z,9.53
2023-05-03T02:18:03.890Z,11.90
2023-05-03T02:20:36.454Z,10.10
2023-05-03T02:23:05.004Z,9.10
2023-05-03T02:25:33.368Z,9.47
2023-05-03T02:28:01.777Z,11.30
2023-05-03T02:30:31.401Z,10.23
2023-05-03T02:32:59.752Z,8.97
2023-05-03T02:35:28.223Z,9.53
2023-05-03T02:37:56.899Z,11.27
2023-05-03T02:40:25.439Z,9.13
2023-05-03T02:42:55.097Z,10.27
2023-05-03T02:45:27.888Z,9.73
2023-05-03T02:47:58.999Z,10.27
2023-05-03T02:50:28.640Z,9.17
2023-05-03T02:52:56.965Z,11.17
2023-05-03T02:55:25.606Z,9.33
2023-05-03T02:57:56.151Z,9.20
2023-05-03T03:00:24.623Z,9.63
2023-05-03T03:02:53.098Z,9.80
2023-05-03T03:05:23.921Z,9.93
2023-05-03T03:07:53.122Z,10.93
2023-05-03T03:10:21.882Z,10.37
2023-05-03T03:12:50.669Z,9.57
2023-05-03T03:15:28.056Z,9.43
2023-05-03T03:17:57.846Z,9.77
2023-05-03T03:20:28.590Z,9.33
2023-05-03T03:22:57.119Z,9.77
2023-05-03T03:25:25.449Z,10.30
2023-05-03T03:27:56.572Z,9.20
2023-05-03T03:30:24.894Z,10.40
2023-05-03T03:33:02.784Z,11.60
2023-05-03T03:35:39.778Z,10.97
2023-05-03T03:38:08.605Z,10.37
2023-05-03T03:40:41.524Z,10.67
2023-05-03T03:43:10.216Z,11.70
2023-05-03T03:45:39.145Z,11.43
2023-05-03T03:48:08.066Z,11.80
2023-05-03T03:50:36.474Z,11.40
2023-05-03T03:53:06.658Z,10.77
2023-05-03T03:55:35.464Z,12.27
2023-05-03T03:58:03.865Z,12.40
2023-05-03T04:00:32.363Z,11.97
2023-05-03T04:03:08.549Z,12.17
2023-05-03T04:05:37.481Z,10.70
2023-05-03T04:08:07.340Z,12.80
2023-05-03T04:10:37.326Z,12.40
2023-05-03T04:13:06.149Z,12.60
2023-05-03T04:15:34.570Z,13.50
2023-05-03T04:18:05.773Z,11.93
2023-05-03T04:20:36.716Z,13.00
2023-05-03T04:23:08.248Z,13.77
2023-05-03T04:25:37.037Z,13.33
2023-05-03T04:28:11.729Z,13.63
2023-05-03T04:30:43.775Z,12.53
2023-05-03T04:33:12.599Z,13.87
2023-05-03T04:35:41.890Z,14.07
2023-05-03T04:38:15.524Z,14.13
2023-05-03T04:40:44.004Z,12.93
2023-05-03T04:43:12.865Z,13.60
2023-05-03T04:45:45.608Z,14.57
2023-05-03T04:48:19.279Z,13.53
2023-05-03T04:50:48.201Z,12.07
2023-05-03T04:53:20.559Z,12.33
2023-05-03T04:55:55.829Z,12.97
2023-05-03T04:58:24.363Z,12.17
2023-05-03T05:00:53.036Z,13.20
2023-05-03T05:03:27.638Z,14.33
2023-05-03T05:05:56.321Z,14.83
2023-05-03T05:08:27.329Z,14.87
2023-05-03T05:10:58.362Z,13.33
2023-05-03T05:13:32.816Z,13.50
2023-05-03T05:16:01.251Z,15.93
2023-05-03T05:18:29.600Z,13.30
2023-05-03T05:20:59.763Z,14.00
2023-05-03T05:23:29.824Z,13.30
2023-05-03T05:26:00.671Z,13.17
2023-05-03T05:28:32.353Z,14.17
2023-05-03T05:31:01.534Z,14.87
2023-05-03T05:33:30.784Z,15.13
2023-05-03T05:36:00.494Z,14.90
2023-05-03T05:38:30.441Z,13.63
2023-05-03T05:41:01.191Z,14.37
2023-05-03T05:43:29.700Z,15.43
2023-05-03T21:31:48.219Z,9.27
2023-05-03T21:34:17.425Z,8.13
2023-05-03T21:36:45.924Z,8.33
2023-05-03T21:39:18.909Z,7.17
2023-05-03T21:41:47.585Z,7.63
2023-05-03T21:44:16.046Z,6.60
2023-05-03T21:46:44.776Z,7.30
2023-05-03T21:49:48.757Z,8.33
2023-05-03T21:52:27.376Z,7.70
2023-05-03T21:54:55.973Z,7.43
2023-05-03T21:57:24.737Z,6.37
2023-05-03T21:59:58.461Z,10.33
2023-05-03T22:02:28.203Z,7.30
2023-05-03T22:04:58.248Z,7.67
2023-05-03T22:07:27.078Z,7.37
2023-05-03T22:09:55.500Z,9.07
2023-05-03T22:12:24.982Z,8.23
2023-05-03T22:14:54.196Z,9.30
2023-05-03T22:17:22.891Z,7.67
2023-05-03T22:19:51.279Z,8.63
2023-05-03T22:22:21.125Z,6.90
2023-05-03T22:24:49.483Z,8.27
2023-05-03T22:27:17.842Z,6.53
2023-05-03T22:29:46.413Z,7.50
2023-05-03T22:32:14.808Z,10.10
2023-05-03T22:34:44.545Z,6.83
2023-05-03T22:37:13.086Z,7.73
2023-05-03T22:39:42.838Z,9.03
2023-05-03T22:42:11.192Z,7.50
2023-05-03T22:44:39.602Z,8.37
2023-05-03T22:47:08.268Z,7.03
2023-05-03T22:49:37.055Z,7.20
2023-05-03T22:52:05.634Z,7.70
2023-05-03T22:54:33.977Z,7.77
2023-05-03T22:57:03.734Z,8.33
2023-05-03T22:59:32.410Z,6.93
2023-05-03T23:02:00.725Z,6.70
2023-05-03T23:04:29.010Z,6.40
2023-05-03T23:06:57.284Z,6.63
2023-05-03T23:09:25.773Z,6.90
2023-05-03T23:11:55.176Z,8.50
2023-05-03T23:14:24.923Z,7.50
2023-05-03T23:16:53.396Z,6.70
2023-05-03T23:19:21.847Z,6.73
2023-05-03T23:21:50.215Z,9.07
2023-05-03T23:24:18.763Z,8.13
2023-05-03T23:26:47.102Z,6.90
2023-05-03T23:29:15.923Z,5.87
2023-05-03T23:31:46.195Z,6.23
2023-05-03T23:34:14.872Z,6.63
2023-05-03T23:36:43.338Z,6.67
2023-05-03T23:39:11.663Z,7.27
2023-05-03T23:41:39.946Z,8.43
2023-05-03T23:44:08.328Z,8.67
2023-05-03T23:46:36.666Z,6.33
2023-05-03T23:49:07.543Z,7.97
2023-05-03T23:51:35.913Z,6.60
2023-05-03T23:54:04.307Z,7.87
2023-05-03T23:56:32.624Z,6.03
2023-05-03T23:59:01.671Z,5.90
